• Join FlightAware (Why Join?)
  • Login
  • US Flag 
06:05PM EDT


 

Airport Tracker/Info


-or-


 

Live Flight TrackerFlight Track Log ✈ VH-YJR ✈ 10-May-2013 ✈ YBRK / ROK - YBBN / BNE

Flight Track Log - Related Links

Times and Time Zones

All times are in EDT time to prevent confusion due to time zone crossing. See the VH-YJR flight status page for this flight to view local times or setup timezone preferences in your user account.

Time Position Orientation Groundspeed Altitude Reporting Facility
EDT Latitude Longitude Course Direction KTS MPH feet Rate Location/Type
05:17AM -23.3940 150.4817 156° South 107 123 500  Level Aus ATC (RADAR)
05:17AM -23.4010 150.4851 156° South 109 125 800 1,200 Climbing Aus ATC (RADAR)
05:18AM -23.4178 150.4910 162° South 108 124 1,500 1,260 Climbing Aus ATC (RADAR)
05:19AM -23.4404 150.4972 166° South 100 115 2,600 1,200 Climbing Aus ATC (RADAR)
05:19AM -23.4553 150.5033 160° South 99 114 3,200 960 Climbing Aus ATC (RADAR)
05:20AM -23.4737 150.5140 152° Southeast 100 115 3,900 900 Climbing Aus ATC (RADAR)
05:21AM -23.4838 150.5202 150° Southeast 101 116 4,300 900 Climbing Aus ATC (RADAR)
05:21AM -23.4981 150.5286 152° Southeast 102 117 4,800 840 Climbing Aus ATC (RADAR)
05:22AM -23.5264 150.5436 154° Southeast 106 122 5,700 780 Climbing Aus ATC (RADAR)
05:23AM -23.5376 150.5501 152° Southeast 109 125 6,000 660 Climbing Aus ATC (RADAR)
05:23AM -23.5531 150.5590 152° Southeast 110 127 6,400 600 Climbing Aus ATC (RADAR)
05:24AM -23.5763 150.5726 152° Southeast 115 132 6,900 600 Climbing Aus ATC (RADAR)
05:25AM -23.5932 150.5831 150° Southeast 121 139 7,300 660 Climbing Aus ATC (RADAR)
05:25AM -23.6166 150.5950 155° Southeast 124 143 7,800 600 Climbing Aus ATC (RADAR)
05:26AM -23.6323 150.6039 153° Southeast 128 147 8,100 600 Climbing Aus ATC (RADAR)
05:26AM -23.6502 150.6148 151° Southeast 127 146 8,500 480 Climbing Aus ATC (RADAR)
05:27AM -23.6763 150.6311 150° Southeast 134 154 8,800 240 Climbing Aus ATC (RADAR)
05:28AM -23.6903 150.6404 148° Southeast 139 160 8,800 60 Level Aus ATC (RADAR)
05:28AM -23.7111 150.6536 150° Southeast 149 171 8,900 120 Climbing Aus ATC (RADAR)
05:29AM -23.7397 150.6699 152° Southeast 155 178 9,000 60 Climbing Aus ATC (RADAR)
05:30AM -23.7624 150.6831 152° Southeast 159 183 9,000  Level Aus ATC (RADAR)
05:30AM -23.7947 150.7036 150° Southeast 162 186 9,000 60 Level Aus ATC (RADAR)
05:31AM -23.8109 150.7138 150° Southeast 161 185 9,100  Climbing Aus ATC (RADAR)
05:31AM -23.8332 150.7290 148° Southeast 163 188 9,000 -120 Descending Aus ATC (RADAR)
05:32AM -23.8687 150.7538 147° Southeast 165 190 9,000  Level Aus ATC (RADAR)
05:33AM -23.8886 150.7664 150° Southeast 165 190 9,000  Level Aus ATC (RADAR)
05:33AM -23.9126 150.7800 153° Southeast 167 192 9,000  Level Aus ATC (RADAR)
05:34AM -23.9407 150.7931 157° South 165 190 9,000  Level Aus ATC (RADAR)
05:34AM -23.9543 150.7995 157° South 163 188 9,000  Level Aus ATC (RADAR)
05:36AM -23.9988 150.8212 156° South 156 180 9,000  Level Aus ATC (RADAR)
05:36AM -24.0158 150.8290 157° South 159 183 9,000  Level Aus ATC (RADAR)
05:37AM -24.0399 150.8406 156° South 162 186 9,000  Level Aus ATC (RADAR)
05:38AM -24.0917 150.8655 156° South 163 188 9,000  Level Aus ATC (RADAR)
05:38AM -24.1021 150.8703 157° South 163 188 9,000  Level Aus ATC (RADAR)
05:39AM -24.1301 150.8837 156° South 164 189 9,000  Level Aus ATC (RADAR)
05:39AM -24.1618 150.8989 156° South 166 191 9,000  Level Aus ATC (RADAR)
05:40AM -24.1863 150.9116 155° Southeast 167 192 9,000  Level Aus ATC (RADAR)
05:41AM -24.2150 150.9249 157° South 168 193 9,000  Level Aus ATC (RADAR)
05:41AM -24.2365 150.9361 155° Southeast 169 194 9,000  Level Aus ATC (RADAR)
05:42AM -24.2620 150.9478 157° South 170 196 9,000  Level Aus ATC (RADAR)
05:43AM -24.3012 150.9684 154° Southeast 170 196 9,000  Level Aus ATC (RADAR)
05:43AM -24.3196 150.9770 157° South 172 198 9,000  Level Aus ATC (RADAR)
05:44AM -24.3485 150.9911 156° South 171 197 9,000  Level Aus ATC (RADAR)
05:45AM -24.3811 151.0068 156° South 169 194 9,000  Level Aus ATC (RADAR)
05:45AM -24.4103 151.0194 159° South 168 193 9,000  Level Aus ATC (RADAR)
05:46AM -24.4419 151.0344 157° South 163 188 9,000  Level Aus ATC (RADAR)
05:46AM -24.4591 151.0436 154° Southeast 164 189 9,000  Level Aus ATC (RADAR)
05:47AM -24.4842 151.0555 157° South 168 193 9,000  Level Aus ATC (RADAR)
05:48AM -24.5223 151.0746 156° South 162 186 9,000  Level Aus ATC (RADAR)
05:48AM -24.5391 151.0849 151° Southeast 165 190 9,000  Level Aus ATC (RADAR)
05:49AM -24.5632 151.0978 154° Southeast 165 190 9,000  Level Aus ATC (RADAR)
05:50AM -24.5934 151.1160 151° Southeast 164 189 9,000  Level Aus ATC (RADAR)
05:50AM -24.6175 151.1296 153° Southeast 165 190 9,000  Level Aus ATC (RADAR)
05:51AM -24.6477 151.1472 152° Southeast 163 188 9,000  Level Aus ATC (RADAR)
05:51AM -24.6652 151.1564 154° Southeast 166 191 9,000  Level Aus ATC (RADAR)
05:52AM -24.6893 151.1688 155° Southeast 165 190 9,000  Level Aus ATC (RADAR)
05:53AM -24.7309 151.1900 155° Southeast 165 190 9,000  Level Aus ATC (RADAR)
05:53AM -24.7481 151.1981 157° South 162 186 9,000  Level Aus ATC (RADAR)
05:54AM -24.7719 151.2106 155° Southeast 160 184 9,000  Level Aus ATC (RADAR)
05:55AM -24.8021 151.2266 154° Southeast 159 183 9,000  Level Aus ATC (RADAR)
05:55AM -24.8252 151.2394 153° Southeast 158 182 9,000  Level Aus ATC (RADAR)
05:56AM -24.8485 151.2521 154° Southeast 159 183 9,000  Level Aus ATC (RADAR)
05:56AM -24.8719 151.2648 154° Southeast 160 184 9,000  Level Aus ATC (RADAR)
05:57AM -24.8960 151.2769 155° Southeast 163 188 9,000  Level Aus ATC (RADAR)
05:58AM -24.9336 151.2978 153° Southeast 165 190 9,000  Level Aus ATC (RADAR)
05:58AM -24.9503 151.3074 152° Southeast 163 188 9,000  Level Aus ATC (RADAR)
05:59AM -24.9742 151.3198 155° Southeast 162 186 9,000  Level Aus ATC (RADAR)
06:00AM -24.9997 151.3356 151° Southeast 157 181 9,000  Level Aus ATC (RADAR)
06:00AM -25.0257 151.3511 152° Southeast 160 184 9,000  Level Aus ATC (RADAR)
06:01AM -25.0517 151.3666 152° Southeast 159 183 9,000  Level Aus ATC (RADAR)
06:01AM -25.0715 151.3785 151° Southeast 161 185 9,000  Level Aus ATC (RADAR)
06:02AM -25.0944 151.3922 152° Southeast 160 184 9,000  Level Aus ATC (RADAR)
06:03AM -25.1302 151.4140 151° Southeast 161 185 9,000  Level Aus ATC (RADAR)
06:03AM -25.1463 151.4246 149° Southeast 161 185 9,000  Level Aus ATC (RADAR)
06:04AM -25.1759 151.4416 152° Southeast 159 183 9,000  Level Aus ATC (RADAR)
06:04AM -25.1920 151.4517 150° Southeast 159 183 9,000  Level Aus ATC (RADAR)
06:05AM -25.2150 151.4650 152° Southeast 160 184 9,000  Level Aus ATC (RADAR)
06:06AM -25.2445 151.4812 154° Southeast 157 181 9,000  Level Aus ATC (RADAR)
06:06AM -25.2673 151.4944 152° Southeast 157 181 9,000  Level Aus ATC (RADAR)
06:07AM -25.2962 151.5113 152° Southeast 157 181 9,000  Level Aus ATC (RADAR)
06:08AM -25.3125 151.5205 153° Southeast 158 182 9,000  Level Aus ATC (RADAR)
06:08AM -25.3478 151.5411 152° Southeast 157 181 9,000  Level Aus ATC (RADAR)
06:09AM -25.3714 151.5524 157° South 157 181 9,000  Level Aus ATC (RADAR)
06:10AM -25.3955 151.5621 160° South 158 182 9,000  Level Aus ATC (RADAR)
06:10AM -25.4304 151.5748 162° South 159 183 9,000  Level Aus ATC (RADAR)
06:11AM -25.4479 151.5810 162° South 157 181 9,000  Level Aus ATC (RADAR)
06:11AM -25.4726 151.5897 162° South 160 184 9,000  Level Aus ATC (RADAR)
06:12AM -25.5049 151.6001 164° South 163 188 9,000  Level Aus ATC (RADAR)
06:13AM -25.5281 151.6130 153° Southeast 162 186 9,000  Level Aus ATC (RADAR)
06:14AM -25.5699 151.6263 164° South 155 178 9,000  Level Aus ATC (RADAR)
06:14AM -25.5808 151.6290 167° South 157 181 9,000  Level Aus ATC (RADAR)
06:15AM -25.6044 151.6414 155° Southeast 156 180 9,000  Level Aus ATC (RADAR)
06:15AM -25.6303 151.6720 133° Southeast 163 188 9,000  Level Aus ATC (RADAR)
06:16AM -25.6473 151.6881 139° Southeast 162 186 9,000  Level Aus ATC (RADAR)
06:16AM -25.6673 151.6981 156° South 143 165 9,000  Level Aus ATC (RADAR)
06:17AM -25.6846 151.7169 135° Southeast 140 161 9,000  Level Aus ATC (RADAR)
06:18AM -25.7033 151.7371 136° Southeast 151 174 9,000  Level Aus ATC (RADAR)
06:19AM -25.7401 151.7767 136° Southeast 155 178 9,000  Level Aus ATC (RADAR)
06:19AM -25.7528 151.7907 135° Southeast 153 176 9,000  Level Aus ATC (RADAR)
06:20AM -25.7708 151.8132 132° Southeast 160 184 9,000  Level Aus ATC (RADAR)
06:21AM -25.7923 151.8399 132° Southeast 153 176 9,000  Level Aus ATC (RADAR)
06:21AM -25.8103 151.8632 130° Southeast 148 170 9,000  Level Aus ATC (RADAR)
06:22AM -25.8219 151.8771 133° Southeast 148 170 9,000  Level Aus ATC (RADAR)
06:22AM -25.8375 151.8974 130° Southeast 147 169 9,000 60 Level Aus ATC (RADAR)
06:23AM -25.8545 151.9154 136° Southeast 144 166 9,100 60 Climbing Aus ATC (RADAR)
06:24AM -25.8888 151.9460 141° Southeast 147 169 9,100  Level Aus ATC (RADAR)
06:24AM -25.9026 151.9576 143° Southeast 148 170 9,100  Level Aus ATC (RADAR)
06:25AM -25.9225 151.9747 142° Southeast 150 173 9,100 60 Level Aus ATC (RADAR)
06:26AM -25.9458 151.9930 145° Southeast 150 173 9,200  Climbing Aus ATC (RADAR)
06:26AM -25.9687 152.0110 145° Southeast 154 177 9,100 -120 Descending Aus ATC (RADAR)
06:27AM -25.9888 152.0275 143° Southeast 153 176 9,100  Level Aus ATC (RADAR)
06:27AM -26.0061 152.0414 144° Southeast 153 176 9,100  Level Aus ATC (RADAR)
06:28AM -26.0256 152.0569 144° Southeast 149 171 9,100 -120 Level Aus ATC (RADAR)
06:29AM -26.0586 152.0822 146° Southeast 144 166 9,000 -120 Descending Aus ATC (RADAR)
06:29AM -26.0726 152.0928 146° Southeast 145 167 9,000 180 Level Aus ATC (RADAR)
06:30AM -26.0947 152.1099 145° Southeast 145 167 9,200  Climbing Aus ATC (RADAR)
06:31AM -26.1141 152.1246 146° Southeast 144 166 9,000  Descending Aus ATC (RADAR)
06:31AM -26.1314 152.1412 139° Southeast 142 163 9,200  Climbing Aus ATC (RADAR)
06:32AM -26.1507 152.1557 146° Southeast 144 166 9,000 -180 Descending Aus ATC (RADAR)
06:32AM -26.1690 152.1709 143° Southeast 141 162 9,000  Level Aus ATC (RADAR)
06:33AM -26.1867 152.1870 141° Southeast 141 162 9,000 60 Level Aus ATC (RADAR)
06:34AM -26.2031 152.2141 124° Southeast 142 163 9,100 120 Climbing Aus ATC (RADAR)
06:34AM -26.2129 152.2297 125° Southeast 147 169 9,200 -120 Climbing Aus ATC (RADAR)
06:34AM -26.2256 152.2421 139° Southeast 147 169 9,000 -120 Descending Aus ATC (RADAR)
06:35AM -26.2423 152.2603 135° Southeast 142 163 9,100  Climbing Aus ATC (RADAR)
06:36AM -26.2599 152.2880 125° Southeast 144 166 9,000  Descending Aus ATC (RADAR)
06:36AM -26.2738 152.3093 126° Southeast 145 167 9,100  Climbing Aus ATC (RADAR)
06:37AM -26.2960 152.3324 137° Southeast 146 168 9,000 -120 Descending Aus ATC (RADAR)
06:37AM -26.3081 152.3450 137° Southeast 143 165 9,000  Level Aus ATC (RADAR)
06:38AM -26.3259 152.3623 139° Southeast 144 166 9,000 60 Level Aus ATC (RADAR)
06:39AM -26.3555 152.3920 138° Southeast 142 163 9,100  Climbing Aus ATC (RADAR)
06:39AM -26.3678 152.4042 138° Southeast 141 162 9,000 60 Descending Aus ATC (RADAR)
06:40AM -26.3904 152.4269 138° Southeast 144 166 9,200 60 Climbing Aus ATC (RADAR)
06:41AM -26.4074 152.4438 138° Southeast 140 161 9,100 -120 Descending Aus ATC (RADAR)
06:41AM -26.4245 152.4608 138° Southeast 140 161 9,100 -120 Level Aus ATC (RADAR)
06:42AM -26.4438 152.4798 139° Southeast 137 158 9,000 -120 Descending Aus ATC (RADAR)
06:42AM -26.4562 152.4908 142° Southeast 136 157 9,000  Level Aus ATC (RADAR)
06:43AM -26.4736 152.5065 141° Southeast 137 158 9,000  Level Aus ATC (RADAR)
06:44AM -26.5046 152.5320 144° Southeast 138 159 9,000 120 Level Aus ATC (RADAR)
06:44AM -26.5171 152.5435 141° Southeast 139 160 9,200  Climbing Aus ATC (RADAR)
06:45AM -26.5324 152.5570 142° Southeast 139 160 9,000  Descending Aus ATC (RADAR)
06:46AM -26.5551 152.5771 142° Southeast 137 158 9,200  Climbing Aus ATC (RADAR)
06:46AM -26.5729 152.5929 142° Southeast 139 160 9,000 -120 Descending Aus ATC (RADAR)
06:47AM -26.5925 152.6060 149° Southeast 138 159 9,100  Climbing Aus ATC (RADAR)
06:48AM -26.6119 152.6250 139° Southeast 138 159 9,000  Descending Aus ATC (RADAR)
06:48AM -26.6276 152.6423 135° Southeast 134 154 9,100 60 Climbing Aus ATC (RADAR)
06:49AM -26.6555 152.6707 138° Southeast 134 154 9,100  Level Aus ATC (RADAR)
06:50AM -26.6670 152.6827 137° Southeast 133 153 9,100  Level Aus ATC (RADAR)
06:50AM -26.6835 152.6992 138° Southeast 135 155 9,100 60 Level Aus ATC (RADAR)
06:51AM -26.7043 152.7211 137° Southeast 135 155 9,200  Climbing Aus ATC (RADAR)
06:51AM -26.7205 152.7380 137° Southeast 135 155 9,100 -180 Descending Aus ATC (RADAR)
06:52AM -26.7404 152.7586 137° Southeast 145 167 9,000 -300 Descending Aus ATC (RADAR)
06:53AM -26.7559 152.7714 144° Southeast 161 185 8,800 -600 Descending Aus ATC (RADAR)
06:53AM -26.7819 152.7836 157° South 171 197 8,400 -600 Descending Aus ATC (RADAR)
06:54AM -26.8152 152.8012 155° Southeast 174 200 8,000 -360 Descending Aus ATC (RADAR)
06:54AM -26.8323 152.8112 152° Southeast 167 192 8,000  Level Aus ATC (RADAR)
06:55AM -26.8559 152.8240 154° Southeast 160 184 8,000  Level Aus ATC (RADAR)
06:55AM -26.8773 152.8398 147° Southeast 158 182 8,000  Level Aus ATC (RADAR)
06:56AM -26.8963 152.8514 151° Southeast 156 180 8,000 -300 Level Aus ATC (RADAR)
06:57AM -26.9203 152.8648 153° Southeast 163 188 7,700 -540 Descending Aus ATC (RADAR)
06:57AM -26.9454 152.8786 154° Southeast 170 196 7,400 -480 Descending Aus ATC (RADAR)
06:58AM -26.9702 152.8930 153° Southeast 171 197 7,200 -480 Descending Aus ATC (RADAR)
06:58AM -26.9918 152.9050 154° Southeast 171 197 6,900 -660 Descending Aus ATC (RADAR)
06:59AM -27.0168 152.9315 136° Southeast 162 186 6,400 -720 Descending Aus ATC (RADAR)
06:59AM -27.0241 152.9538 110° East 171 197 6,100 -600 Descending Aus ATC (RADAR)
07:00AM -27.0364 152.9795 118° Southeast 157 181 5,800 -660 Descending Aus ATC (RADAR)
07:00AM -27.0466 153.0030 116° Southeast 161 185 5,400 -780 Descending Aus ATC (RADAR)
07:01AM -27.0591 153.0303 117° Southeast 164 189 5,000 -660 Descending Aus ATC (RADAR)
07:02AM -27.0699 153.0529 118° Southeast 162 186 4,700 -600 Descending Aus ATC (RADAR)
07:02AM -27.0814 153.0799 116° Southeast 160 184 4,400 -600 Descending Aus ATC (RADAR)
07:03AM -27.0934 153.1069 117° Southeast 161 185 4,000 -300 Descending Aus ATC (RADAR)
07:03AM -27.0999 153.1299 108° East 152 175 4,100 60 Climbing Aus ATC (RADAR)
07:04AM -27.1062 153.1555 106° East 144 166 4,100 -300 Level Aus ATC (RADAR)
07:04AM -27.1116 153.1784 105° East 148 170 3,800  Descending Aus ATC (RADAR)
07:05AM -27.1172 153.2029 104° East 138 159 4,100 240 Climbing Aus ATC (RADAR)
07:05AM -27.1280 153.2203 125° Southeast 141 162 4,100 -240 Level Aus ATC (RADAR)
07:06AM -27.1469 153.2361 143° Southeast 147 169 3,900 -600 Descending Aus ATC (RADAR)
07:07AM -27.1748 153.2324 187° South 166 191 3,400 -720 Descending Aus ATC (RADAR)
07:07AM -27.2019 153.2291 186° South 167 192 3,100 -720 Descending Aus ATC (RADAR)
07:08AM -27.2279 153.2167 203° Southwest 173 199 2,600 -600 Descending Aus ATC (RADAR)
07:08AM -27.2517 153.2022 208° Southwest 165 190 2,400 -240 Descending Aus ATC (RADAR)
07:09AM -27.2712 153.1922 204° Southwest 155 178 2,400 -660 Level Aus ATC (RADAR)
07:09AM -27.2891 153.1816 208° Southwest 147 169 1,800 -900 Descending Aus ATC (RADAR)
07:10AM -27.3114 153.1694 206° Southwest 133 153 1,400 -600 Descending Aus ATC (RADAR)
07:11AM -27.3292 153.1591 207° Southwest 125 144 1,100 -600 Descending Aus ATC (RADAR)
07:11AM -27.3467 153.1495 206° Southwest 121 139 700 -600 Descending Aus ATC (RADAR)
07:12AM -27.3665 153.1384 207° Southwest 105 121 300 -540 Descending Aus ATC (RADAR)